Dd Catherwood — CZ5502 — position and weather

sailwx.info

Track history (hours):
 
Tides and Currents Weather Stations Pressure Air Temp Water Temp Dewpoint Dewpoint Depression Visibility Wind Speed Wind Dir Waves Ship Positions

Dd Catherwood

Last reported at 2018-Jun-16 03:16 UTC. Time now 2018-Jun-18 11:18 UTC.
Position N 49°12' W 123°04'.

Length 21 m; draft 3.5 m.

Type: Tow > 200 m length. MMSI: 316006155.

Date/timePositionNaut miles runAvg speedWind from/ knotsBaromVisibWave heightAir tempDewpointWater temp
2018-Jun-16 03:16N 49°12' W 123°04'0 0.0
2018-Jun-16 03:00N 49°12' W 123°04'0 0.0
2018-Jun-16 02:30N 49°12' W 123°04'0 0.0
2018-Jun-16 02:00N 49°12' W 123°04'1 1.5
2018-Jun-16 01:29N 49°12' W 123°05'4 8.0
2018-Jun-16 01:00N 49°13' W 123°11'5 9.3
2018-Jun-16 00:28N 49°16' W 123°17'4 7.9
2018-Jun-16 00:00N 49°17' W 123°23'31 8.7
2018-Jun-15 20:29N 49°33' W 124°03'5 9.2
2018-Jun-15 19:57N 49°36' W 124°09'6 9.5
2018-Jun-15 19:18N 49°40' W 124°16'4 9.5
2018-Jun-15 18:55N 49°42' W 124°20'4 9.4
2018-Jun-15 18:30N 49°44' W 124°25'5 9.2
2018-Jun-15 18:00N 49°47' W 124°31'5 9.1
2018-Jun-15 17:30N 49°51' W 124°33'1 1.1
2018-Jun-15 16:59N 49°52' W 124°33'0 0.0
2018-Jun-15 16:29N 49°52' W 124°33'0 0.0
2018-Jun-15 16:00N 49°52' W 124°33'0 0.0
2018-Jun-15 15:30N 49°52' W 124°33'0 0.0
2018-Jun-15 14:36N 49°52' W 124°33'0 0.0
2018-Jun-15 14:30N 49°52' W 124°33'0 0.0
2018-Jun-15 13:59N 49°52' W 124°33'0 0.0
2018-Jun-15 13:27N 49°52' W 124°33'0 0.0
2018-Jun-15 13:00N 49°52' W 124°33'1 2.0
2018-Jun-15 12:31N 49°51' W 124°33'3 6.7
2018-Jun-15 12:00N 49°48' W 124°32'4 8.7
2018-Jun-15 11:30N 49°45' W 124°26'4 8.8
2018-Jun-15 11:00N 49°43' W 124°20'5 8.7
2018-Jun-15 10:28N 49°40' W 124°15'4 8.7
2018-Jun-15 09:59N 49°37' W 124°10'5 9.1
2018-Jun-15 09:27N 49°34' W 124°05'32 8.5
2018-Jun-15 05:44N 49°17' W 123°23'2 7.8
2018-Jun-15 05:30N 49°17' W 123°21'3 6.8
2018-Jun-15 04:59N 49°15' W 123°16'3 7.1
2018-Jun-15 04:30N 49°13' W 123°12'3 6.6
2018-Jun-15 04:00N 49°12' W 123°07'2 3.9
2018-Jun-15 03:30N 49°12' W 123°04'0 0.1
2018-Jun-15 03:00N 49°12' W 123°04'0 0.0
2018-Jun-15 02:30N 49°12' W 123°04'0 0.0
2018-Jun-15 02:00N 49°12' W 123°04'0 0.0
2018-Jun-15 01:30N 49°12' W 123°04'0 0.0
2018-Jun-15 01:00N 49°12' W 123°04'0 0.0
2018-Jun-15 00:30N 49°12' W 123°04'0 0.0
2018-Jun-15 00:00N 49°12' W 123°04'0 0.0
2018-Jun-14 23:29N 49°12' W 123°04'0 0.0
2018-Jun-14 23:00N 49°12' W 123°04'0 0.0
2018-Jun-14 22:30N 49°12' W 123°04'0 0.0
2018-Jun-14 22:00N 49°12' W 123°04'0 0.0
2018-Jun-14 21:30N 49°12' W 123°04'0 0.0
2018-Jun-14 21:00N 49°12' W 123°04'0 0.0
2018-Jun-14 20:30N 49°12' W 123°04'0 0.0
2018-Jun-14 20:00N 49°12' W 123°04'0 0.0
2018-Jun-14 19:30N 49°12' W 123°04'0 0.0
2018-Jun-14 19:00N 49°12' W 123°04'0 0.0
2018-Jun-14 18:30N 49°12' W 123°04'0 0.0
2018-Jun-14 18:00N 49°12' W 123°04'0 0.1
2018-Jun-14 17:30N 49°12' W 123°04'2 3.7
2018-Jun-14 17:00N 49°12' W 123°07'2 4.5
2018-Jun-14 16:30N 49°13' W 123°10'2 4.9
2018-Jun-14 15:59N 49°14' W 123°13'3 4.8
2018-Jun-14 15:26N 49°15' W 123°16'3 6.8
2018-Jun-14 14:59N 49°17' W 123°21'8 7.5
2018-Jun-14 13:54N 49°24' W 123°25'4 8.8
2018-Jun-14 13:30N 49°27' W 123°28'3 0.8
2018-Jun-14 09:29N 49°30' W 123°30'1 0.6
2018-Jun-14 08:27N 49°30' W 123°29'4 7.6
2018-Jun-14 07:59N 49°26' W 123°28'4 7.7
2018-Jun-14 07:26N 49°22' W 123°26'4 7.1
2018-Jun-14 06:56N 49°19' W 123°24'4 8.9
2018-Jun-14 06:30N 49°18' W 123°18'5 8.4
2018-Jun-14 05:57N 49°14' W 123°14'4 8.3
2018-Jun-14 05:30N 49°12' W 123°09'3 7.0
2018-Jun-14 05:00N 49°12' W 123°04'0 0.2
2018-Jun-14 04:30N 49°12' W 123°04'0 0.4
2018-Jun-14 04:00N 49°12' W 123°04'0 0.4
2018-Jun-14 03:29N 49°12' W 123°04'3 5.2
2018-Jun-14 02:59N 49°12' W 123°08'3 7.1
2018-Jun-14 02:30N 49°13' W 123°12'4 7.6
2018-Jun-14 02:00N 49°16' W 123°17'3 6.8
2018-Jun-14 01:30N 49°16' W 123°22'31 8.5
2018-Jun-13 21:51N 49°33' W 124°02'3 8.3
2018-Jun-13 21:30N 49°35' W 124°06'4 8.4
2018-Jun-13 21:00N 49°38' W 124°11'4 8.3
2018-Jun-13 20:29N 49°40' W 124°15'4 8.6
2018-Jun-13 19:59N 49°43' W 124°21'4 8.8
2018-Jun-13 19:30N 49°45' W 124°26'4 8.4
2018-Jun-13 19:00N 49°48' W 124°32'4 8.4
2018-Jun-13 18:29N 49°52' W 124°34'0 0.9
2018-Jun-13 18:00N 49°52' W 124°33'0 0.1
2018-Jun-13 17:22N 49°52' W 124°33'0 0.0
2018-Jun-13 16:51N 49°52' W 124°33'0 0.0
2018-Jun-13 16:30N 49°52' W 124°33'0 0.0
2018-Jun-13 16:00N 49°52' W 124°33'0 0.0
2018-Jun-13 15:30N 49°52' W 124°33'0 0.0
2018-Jun-13 15:01N 49°52' W 124°33'0 0.0
2018-Jun-13 14:30N 49°52' W 124°33'0 0.0
2018-Jun-13 13:59N 49°52' W 124°33'1 1.2
2018-Jun-13 13:30N 49°52' W 124°33'3 5.1
2018-Jun-13 13:00N 49°49' W 124°33'4 8.8
2018-Jun-13 12:30N 49°46' W 124°28'4 8.9
2018-Jun-13 12:00N 49°44' W 124°22'5 9.2
2018-Jun-13 11:30N 49°41' W 124°16'5 9.5
2018-Jun-13 11:00N 49°38' W 124°10'6 9.1
2018-Jun-13 10:22N 49°34' W 124°04'30 8.8
2018-Jun-13 06:56N 49°17' W 123°24'4 9.3
2018-Jun-13 06:30N 49°16' W 123°19'4 8.0
2018-Jun-13 06:00N 49°14' W 123°14'4 8.1
2018-Jun-13 05:30N 49°12' W 123°08'3 5.3
2018-Jun-13 05:00N 49°12' W 123°04'0 0.2
2018-Jun-13 04:30N 49°12' W 123°04'0 0.0
2018-Jun-13 03:59N 49°12' W 123°04'0 0.0
2018-Jun-13 03:30N 49°12' W 123°04'0 0.0
2018-Jun-13 03:00N 49°12' W 123°04'0 0.0
2018-Jun-13 02:29N 49°12' W 123°04'0 0.0
2018-Jun-13 02:00N 49°12' W 123°04'0 0.0
2018-Jun-13 01:29N 49°12' W 123°04'0 0.0
2018-Jun-13 01:00N 49°12' W 123°04'0 0.0
2018-Jun-13 00:30N 49°12' W 123°04'0 0.0
2018-Jun-12 23:58N 49°12' W 123°04'0 0.0
2018-Jun-12 23:30N 49°12' W 123°04'0 0.0
2018-Jun-12 23:00N 49°12' W 123°04'0 0.0
2018-Jun-12 22:30N 49°12' W 123°04'0 0.0
2018-Jun-12 22:00N 49°12' W 123°04'0 0.0
2018-Jun-12 21:30N 49°12' W 123°04'0 0.0
2018-Jun-12 21:00N 49°12' W 123°04'0 0.0
2018-Jun-12 20:28N 49°12' W 123°04'0 0.0
2018-Jun-12 20:00N 49°12' W 123°04'0 0.0
2018-Jun-12 19:29N 49°12' W 123°04'0 0.0
2018-Jun-12 19:00N 49°12' W 123°04'0 0.0
2018-Jun-12 18:30N 49°12' W 123°04'0 0.0
2018-Jun-12 17:59N 49°12' W 123°04'0 0.0
2018-Jun-12 17:30N 49°12' W 123°04'0 0.0
2018-Jun-12 17:00N 49°12' W 123°04'0 0.0
2018-Jun-12 16:28N 49°12' W 123°04'0 0.0
2018-Jun-12 15:59N 49°12' W 123°04'0 0.0
2018-Jun-12 15:30N 49°12' W 123°04'0 0.0
2018-Jun-12 15:00N 49°12' W 123°04'0 0.0
2018-Jun-12 14:30N 49°12' W 123°04'0 0.0
2018-Jun-12 14:00N 49°12' W 123°04'0 0.0
2018-Jun-12 13:28N 49°12' W 123°04'0 0.0
2018-Jun-12 13:00N 49°12' W 123°04'0 0.0
2018-Jun-12 12:30N 49°12' W 123°04'0 0.0
2018-Jun-12 12:00N 49°12' W 123°04'0 0.0
2018-Jun-12 11:29N 49°12' W 123°04'0 0.0
2018-Jun-12 11:00N 49°12' W 123°04'0 0.0
2018-Jun-12 10:30N 49°12' W 123°04'0 0.0
2018-Jun-12 10:00N 49°12' W 123°04'0 0.0
2018-Jun-12 09:30N 49°12' W 123°04'0 0.0
2018-Jun-12 09:00N 49°12' W 123°04'0 0.0
2018-Jun-12 08:29N 49°12' W 123°04'0 0.0
2018-Jun-12 08:00N 49°12' W 123°04'0 0.0
2018-Jun-12 07:30N 49°12' W 123°04'0 0.0
2018-Jun-12 06:53N 49°12' W 123°04'0 0.0
2018-Jun-12 06:28N 49°12' W 123°04'0 0.0
2018-Jun-12 05:58N 49°12' W 123°04'0 0.0
2018-Jun-12 05:28N 49°12' W 123°04'0 0.0
2018-Jun-12 05:00N 49°12' W 123°04'0 0.0
2018-Jun-12 04:30N 49°12' W 123°04'0 0.0
2018-Jun-12 04:00N 49°12' W 123°04'0 0.0
2018-Jun-12 03:30N 49°12' W 123°04'0 0.0
2018-Jun-12 02:47N 49°12' W 123°04'0 0.0
2018-Jun-12 02:28N 49°12' W 123°04'0 0.0
2018-Jun-12 01:57N 49°12' W 123°04'0 0.0
2018-Jun-12 01:30N 49°12' W 123°04'0 0.0
2018-Jun-12 01:00N 49°12' W 123°04'0 0.0
2018-Jun-12 00:30N 49°12' W 123°04'0 0.0
2018-Jun-11 23:58N 49°12' W 123°04'0 0.0
2018-Jun-11 23:30N 49°12' W 123°04'0 0.0
2018-Jun-11 23:00N 49°12' W 123°04'0 0.0
2018-Jun-11 22:25N 49°12' W 123°04'0 0.0
2018-Jun-11 21:58N 49°12' W 123°04'0 0.0
2018-Jun-11 21:27N 49°12' W 123°04'0 0.0
2018-Jun-11 20:57N 49°12' W 123°04'0 0.0
2018-Jun-11 20:29N 49°12' W 123°04'0 0.0
2018-Jun-11 20:00N 49°12' W 123°04'0 0.0
2018-Jun-11 19:27N 49°12' W 123°04'0 0.0
2018-Jun-11 18:58N 49°12' W 123°04'0 0.0
2018-Jun-11 18:30N 49°12' W 123°04'0 0.0
2018-Jun-11 18:00N 49°12' W 123°04'0 0.0
2018-Jun-11 17:28N 49°12' W 123°04'0 0.0
2018-Jun-11 16:59N 49°12' W 123°04'0 0.0
2018-Jun-11 16:30N 49°12' W 123°04'0 0.0
2018-Jun-11 16:00N 49°12' W 123°04'0 0.0
2018-Jun-11 15:29N 49°12' W 123°04'0 0.0
2018-Jun-11 15:00N 49°12' W 123°04'0 0.0
2018-Jun-11 14:30N 49°12' W 123°04'0 0.0
2018-Jun-11 14:00N 49°12' W 123°04'0 0.0
2018-Jun-11 13:28N 49°12' W 123°04'0 0.0
2018-Jun-11 12:58N 49°12' W 123°04'0 0.0
2018-Jun-11 12:30N 49°12' W 123°04'0 0.0
2018-Jun-11 11:59N 49°12' W 123°04'0 0.0
2018-Jun-11 11:30N 49°12' W 123°04'0 0.0
2018-Jun-11 11:00N 49°12' W 123°04'0 0.0
2018-Jun-11 10:27N 49°12' W 123°04'0 0.0
2018-Jun-11 09:51N 49°12' W 123°04'0 0.0
2018-Jun-11 09:04N 49°12' W 123°04'0 0.0
2018-Jun-11 08:49N 49°12' W 123°04'0 0.0
2018-Jun-11 07:58N 49°12' W 123°04'0 0.0
2018-Jun-11 07:27N 49°12' W 123°04'0 0.0
2018-Jun-11 07:00N 49°12' W 123°04'0 0.0
2018-Jun-11 06:28N 49°12' W 123°04'0 0.0
2018-Jun-11 05:58N 49°12' W 123°04'0 0.0
2018-Jun-11 05:29N 49°12' W 123°04'0 0.0
2018-Jun-11 04:38N 49°12' W 123°04'0 0.0
2018-Jun-11 04:30N 49°12' W 123°04'0 0.0
2018-Jun-11 03:58N 49°12' W 123°04'0 0.0
2018-Jun-11 03:20N 49°12' W 123°04'0 0.0
2018-Jun-11 02:48N 49°12' W 123°04'0 0.0
2018-Jun-11 02:29N 49°12' W 123°04'0 0.0
2018-Jun-11 02:00N 49°12' W 123°04'0 0.0
2018-Jun-11 01:26N 49°12' W 123°04'0 0.0
2018-Jun-11 00:56N 49°12' W 123°04'0 0.0
2018-Jun-11 00:15N 49°12' W 123°04'0 0.0
2018-Jun-10 23:54N 49°12' W 123°04'0 0.0
2018-Jun-10 23:25N 49°12' W 123°04'0 0.0
2018-Jun-10 22:58N 49°12' W 123°04'0 0.0
2018-Jun-10 22:27N 49°12' W 123°04'0 0.0
2018-Jun-10 21:58N 49°12' W 123°04'0 0.0
2018-Jun-10 21:30N 49°12' W 123°04'0 0.0
2018-Jun-10 21:00N 49°12' W 123°04'0 0.0
2018-Jun-10 20:30N 49°12' W 123°04'0 0.0
2018-Jun-10 19:59N 49°12' W 123°04'0 0.0
2018-Jun-10 19:30N 49°12' W 123°04'0 0.0
2018-Jun-10 18:38N 49°12' W 123°04'0 0.0
2018-Jun-10 18:30N 49°12' W 123°04'0 0.0
2018-Jun-10 18:00N 49°12' W 123°04'0 0.0
2018-Jun-10 17:28N 49°12' W 123°04'0 0.0
2018-Jun-10 17:00N 49°12' W 123°04'0 0.0
2018-Jun-10 16:30N 49°12' W 123°04'0 0.0
2018-Jun-10 16:00N 49°12' W 123°04'0 0.0
2018-Jun-10 15:30N 49°12' W 123°04'0 0.0
2018-Jun-10 15:00N 49°12' W 123°04'0 0.0
2018-Jun-10 14:00N 49°12' W 123°04'0 0.0
2018-Jun-10 13:30N 49°12' W 123°04'0 0.0
2018-Jun-10 13:00N 49°12' W 123°04'0 0.0
2018-Jun-10 12:30N 49°12' W 123°04'0 0.0
2018-Jun-10 11:58N 49°12' W 123°04'0 0.0
2018-Jun-10 11:25N 49°12' W 123°04'0 0.0
2018-Jun-10 10:58N 49°12' W 123°04'0 0.0
2018-Jun-10 10:29N 49°12' W 123°04'0 0.0
2018-Jun-10 09:22N 49°12' W 123°04'0 0.0
2018-Jun-10 08:57N 49°12' W 123°04'0 0.0
2018-Jun-10 08:30N 49°12' W 123°04'0 0.0
2018-Jun-10 07:59N 49°12' W 123°04'0 0.0
2018-Jun-10 07:30N 49°12' W 123°04'0 0.0
2018-Jun-10 06:59N 49°12' W 123°04'0 0.0
2018-Jun-10 06:30N 49°12' W 123°04'0 0.0
2018-Jun-10 05:55N 49°12' W 123°04'0 0.0
2018-Jun-10 05:30N 49°12' W 123°04'0 0.0
2018-Jun-10 04:15N 49°12' W 123°04'0 0.0
2018-Jun-10 04:00N 49°12' W 123°04'0 0.0
2018-Jun-10 03:30N 49°12' W 123°04'0 0.0
2018-Jun-10 03:00N 49°12' W 123°04'0 0.0
2018-Jun-10 02:30N 49°12' W 123°04'0 0.0
2018-Jun-10 02:00N 49°12' W 123°04'0 0.0
2018-Jun-10 01:30N 49°12' W 123°04'0 0.0
2018-Jun-10 00:59N 49°12' W 123°04'0 0.0
2018-Jun-10 00:30N 49°12' W 123°04'0 0.0
2018-Jun-10 00:00N 49°12' W 123°04'0 0.0
2018-Jun-09 23:30N 49°12' W 123°04'0 0.0
2018-Jun-09 23:00N 49°12' W 123°04'0 0.0
2018-Jun-09 22:29N 49°12' W 123°04'0 0.0
2018-Jun-09 22:00N 49°12' W 123°04'0 0.0
2018-Jun-09 21:30N 49°12' W 123°04'0 0.0
2018-Jun-09 20:55N 49°12' W 123°04'0 0.0
2018-Jun-09 20:30N 49°12' W 123°04'0 0.0
2018-Jun-09 20:00N 49°12' W 123°04'0 0.0
2018-Jun-09 19:30N 49°12' W 123°04'0 0.0
2018-Jun-09 19:00N 49°12' W 123°04'0 0.0
2018-Jun-09 18:30N 49°12' W 123°04'0 0.0
2018-Jun-09 18:00N 49°12' W 123°04'0 0.0
2018-Jun-09 17:28N 49°12' W 123°04'0 0.0
2018-Jun-09 17:00N 49°12' W 123°04'0 0.0
2018-Jun-09 16:30N 49°12' W 123°04'0 0.0
2018-Jun-09 16:00N 49°12' W 123°04'0 0.0
2018-Jun-09 15:00N 49°12' W 123°04'0 0.0
2018-Jun-09 14:30N 49°12' W 123°04'0 0.0
2018-Jun-09 13:59N 49°12' W 123°04'0 0.0
2018-Jun-09 13:30N 49°12' W 123°04'0 0.0
2018-Jun-09 12:58N 49°12' W 123°04'0 0.0
2018-Jun-09 12:30N 49°12' W 123°04'0 0.0
2018-Jun-09 12:00N 49°12' W 123°04'0 0.0
2018-Jun-09 11:30N 49°12' W 123°04'0 0.0
2018-Jun-09 10:55N 49°12' W 123°04'0 0.0
2018-Jun-09 10:19N 49°12' W 123°04'0 0.0
2018-Jun-09 09:57N 49°12' W 123°04'0 0.0
2018-Jun-09 09:30N 49°12' W 123°04'0 0.0
2018-Jun-09 08:59N 49°12' W 123°04'0 0.0
2018-Jun-09 08:08N 49°12' W 123°04'0 0.0
2018-Jun-09 07:59N 49°12' W 123°04'0 0.0
2018-Jun-09 06:27N 49°12' W 123°04'0 0.0
2018-Jun-09 06:00N 49°12' W 123°04'0 0.0
2018-Jun-09 05:26N 49°12' W 123°04'0 0.0
2018-Jun-09 04:59N 49°12' W 123°04'0 0.0
2018-Jun-09 04:30N 49°12' W 123°04'0 0.0
2018-Jun-09 03:56N 49°12' W 123°04'0 0.0
2018-Jun-09 03:30N 49°12' W 123°04'0 0.0
2018-Jun-09 03:00N 49°12' W 123°04'0 0.0
2018-Jun-09 02:29N 49°12' W 123°04'0 0.0
2018-Jun-09 01:56N 49°12' W 123°04'0 0.0
2018-Jun-09 01:30N 49°12' W 123°04'0 0.0
2018-Jun-09 00:58N 49°12' W 123°04'0 0.0
2018-Jun-09 00:30N 49°12' W 123°04'0 0.0
2018-Jun-08 23:59N 49°12' W 123°04'0 0.0
2018-Jun-08 23:24N 49°12' W 123°04'0 0.0
2018-Jun-08 23:00N 49°12' W 123°04'0 0.0
2018-Jun-08 22:30N 49°12' W 123°04'0 0.0
2018-Jun-08 21:59N 49°12' W 123°04'0 0.0
2018-Jun-08 21:30N 49°12' W 123°04'0 0.0
2018-Jun-08 20:59N 49°12' W 123°04'0 0.0
2018-Jun-08 20:30N 49°12' W 123°04'0 0.0
2018-Jun-08 20:00N 49°12' W 123°04'0 0.0
2018-Jun-08 19:30N 49°12' W 123°04'0 0.0
2018-Jun-08 18:59N 49°12' W 123°04'0 0.0
2018-Jun-08 18:28N 49°12' W 123°04'0 0.0
2018-Jun-08 18:00N 49°12' W 123°04'0 0.0
2018-Jun-08 17:30N 49°12' W 123°04'0 0.0
2018-Jun-08 17:00N 49°12' W 123°04'0 0.0
2018-Jun-08 16:30N 49°12' W 123°04'0 0.0
2018-Jun-08 16:00N 49°12' W 123°04'0 0.0
2018-Jun-08 15:30N 49°12' W 123°04'0 0.0
2018-Jun-08 15:00N 49°12' W 123°04'0 0.0
2018-Jun-08 14:30N 49°12' W 123°04'0 0.0
2018-Jun-08 13:59N 49°12' W 123°04'0 0.0
2018-Jun-08 13:29N 49°12' W 123°04'0 0.0
2018-Jun-08 13:00N 49°12' W 123°04'0 0.0
2018-Jun-08 12:29N 49°12' W 123°04'0 0.0
2018-Jun-08 12:00N 49°12' W 123°04'0 0.0
2018-Jun-08 11:30N 49°12' W 123°04'0 0.0
2018-Jun-08 11:00N 49°12' W 123°04'0 0.0
2018-Jun-08 10:28N 49°12' W 123°04'0 0.0
2018-Jun-08 10:00N 49°12' W 123°04'0 0.0
2018-Jun-08 09:28N 49°12' W 123°04'0 0.0
2018-Jun-08 09:00N 49°12' W 123°04'0 0.0
2018-Jun-08 08:30N 49°12' W 123°04'0 0.0
2018-Jun-08 08:00N 49°12' W 123°04'0 0.0
2018-Jun-08 07:30N 49°12' W 123°04'0 0.0
2018-Jun-08 07:00N 49°12' W 123°04'0 0.0
2018-Jun-08 06:30N 49°12' W 123°04'0 0.0
2018-Jun-08 06:00N 49°12' W 123°04'0 0.0
2018-Jun-08 05:29N 49°12' W 123°04'0 0.0
2018-Jun-08 04:59N 49°12' W 123°04'0 0.0
2018-Jun-08 04:26N 49°12' W 123°04'0 0.0
2018-Jun-08 04:00N 49°12' W 123°04'0 0.0
2018-Jun-08 03:30N 49°12' W 123°04'0 0.0
2018-Jun-08 03:00N 49°12' W 123°04'0 0.0
2018-Jun-08 02:30N 49°12' W 123°04'0 0.0
2018-Jun-08 01:58N 49°12' W 123°04'0 0.0
2018-Jun-08 01:30N 49°12' W 123°04'0 0.0
2018-Jun-08 01:00N 49°12' W 123°04'0 0.0
2018-Jun-08 00:30N 49°12' W 123°04'0 0.0
2018-Jun-08 00:00N 49°12' W 123°04'0 0.0
2018-Jun-07 23:29N 49°12' W 123°04'0 0.0
2018-Jun-07 23:00N 49°12' W 123°04'0 0.0
2018-Jun-07 22:30N 49°12' W 123°04'0 0.0
2018-Jun-07 22:00N 49°12' W 123°04'0 0.0
2018-Jun-07 21:30N 49°12' W 123°04'0 0.0
2018-Jun-07 21:00N 49°12' W 123°04'0 0.0
2018-Jun-07 20:30N 49°12' W 123°04'0 0.0
2018-Jun-07 20:00N 49°12' W 123°04'0 0.0
2018-Jun-07 19:30N 49°12' W 123°04'0 0.0
2018-Jun-07 19:00N 49°12' W 123°04'0 0.0
2018-Jun-07 18:30N 49°12' W 123°04'0 0.0
2018-Jun-07 18:00N 49°12' W 123°04'0 0.0
2018-Jun-07 17:29N 49°12' W 123°04'0 0.0
2018-Jun-07 17:00N 49°12' W 123°04'0 0.0
2018-Jun-07 16:30N 49°12' W 123°04'0 0.0
2018-Jun-07 16:00N 49°12' W 123°04'0 0.0
2018-Jun-07 15:30N 49°12' W 123°04'0 0.0
2018-Jun-07 15:00N 49°12' W 123°04'0 0.0
2018-Jun-07 14:29N 49°12' W 123°04'0 0.0
2018-Jun-07 14:00N 49°12' W 123°04'0 0.0
2018-Jun-07 13:30N 49°12' W 123°04'0 0.0
2018-Jun-07 13:00N 49°12' W 123°04'0 0.0
2018-Jun-07 12:30N 49°12' W 123°04'0 0.0
2018-Jun-07 11:59N 49°12' W 123°04'0 0.0
2018-Jun-07 11:30N 49°12' W 123°04'0 0.0
2018-Jun-07 11:00N 49°12' W 123°04'0 0.0
2018-Jun-07 10:30N 49°12' W 123°04'0 0.0
2018-Jun-07 10:00N 49°12' W 123°04'0 0.0
2018-Jun-07 09:30N 49°12' W 123°04'0 0.0
2018-Jun-07 09:00N 49°12' W 123°04'0 0.0
2018-Jun-07 08:30N 49°12' W 123°04'0 0.0
2018-Jun-07 08:00N 49°12' W 123°04'0 0.0
2018-Jun-07 07:30N 49°12' W 123°04'0 0.0
2018-Jun-07 07:00N 49°12' W 123°04'0 0.0
2018-Jun-07 06:30N 49°12' W 123°04'0 0.0
2018-Jun-07 06:00N 49°12' W 123°04'0 0.0
2018-Jun-07 05:30N 49°12' W 123°04'0 0.0
2018-Jun-07 05:00N 49°12' W 123°04'0 0.0
2018-Jun-07 04:30N 49°12' W 123°04'0 0.0
2018-Jun-07 03:59N 49°12' W 123°04'0 0.0
2018-Jun-07 03:30N 49°12' W 123°04'0 0.0
2018-Jun-07 03:00N 49°12' W 123°04'0 0.0
2018-Jun-07 02:30N 49°12' W 123°04'0 0.0
2018-Jun-07 02:00N 49°12' W 123°04'0 0.0
2018-Jun-07 01:30N 49°12' W 123°04'0 0.0
2018-Jun-07 00:59N 49°12' W 123°04'0 0.0
2018-Jun-07 00:30N 49°12' W 123°04'0 0.0
2018-Jun-07 00:00N 49°12' W 123°04'0 0.0
2018-Jun-06 23:29N 49°12' W 123°04'0 0.0
2018-Jun-06 23:00N 49°12' W 123°04'0 0.0
2018-Jun-06 22:30N 49°12' W 123°04'0 0.0
2018-Jun-06 22:00N 49°12' W 123°04'0 0.0
2018-Jun-06 21:30N 49°12' W 123°04'0 0.0
2018-Jun-06 21:00N 49°12' W 123°04'0 0.0
2018-Jun-06 20:30N 49°12' W 123°04'0 0.0
2018-Jun-06 20:00N 49°12' W 123°04'0 0.0
2018-Jun-06 19:30N 49°12' W 123°04'0 0.0
2018-Jun-06 19:00N 49°12' W 123°04'0 0.0
2018-Jun-06 18:30N 49°12' W 123°04'0 0.0
2018-Jun-06 18:00N 49°12' W 123°04'0 0.0
2018-Jun-06 17:30N 49°12' W 123°04'0 0.0
2018-Jun-06 17:00N 49°12' W 123°04'0 0.0
2018-Jun-06 16:30N 49°12' W 123°04'0 0.0
2018-Jun-06 15:59N 49°12' W 123°04'0 0.0
2018-Jun-06 15:30N 49°12' W 123°04'0 0.0
2018-Jun-06 15:00N 49°12' W 123°04'0 0.0
2018-Jun-06 14:29N 49°12' W 123°04'0 0.0
2018-Jun-06 14:00N 49°12' W 123°04'0 0.0
2018-Jun-06 13:30N 49°12' W 123°04'0 0.0
2018-Jun-06 13:00N 49°12' W 123°04'0 0.0
2018-Jun-06 12:30N 49°12' W 123°04'0 0.0
2018-Jun-06 12:00N 49°12' W 123°04'0 0.0
2018-Jun-06 11:30N 49°12' W 123°04'0 0.0
2018-Jun-06 11:00N 49°12' W 123°04'0 0.0
2018-Jun-06 10:30N 49°12' W 123°04'0 0.0
2018-Jun-06 09:59N 49°12' W 123°04'0 0.0
2018-Jun-06 09:30N 49°12' W 123°04'0 0.0
2018-Jun-06 09:00N 49°12' W 123°04'0 0.0
2018-Jun-06 08:30N 49°12' W 123°04'0 0.0
2018-Jun-06 08:00N 49°12' W 123°04'0 0.0
2018-Jun-06 07:30N 49°12' W 123°04'0 0.0
2018-Jun-06 07:00N 49°12' W 123°04'0 0.0
2018-Jun-06 06:30N 49°12' W 123°04'0 0.0
2018-Jun-06 06:00N 49°12' W 123°04'0 0.0
2018-Jun-06 05:30N 49°12' W 123°04'0 0.0
2018-Jun-06 05:00N 49°12' W 123°04'0 0.0
2018-Jun-06 04:30N 49°12' W 123°04'0 0.0
2018-Jun-06 04:00N 49°12' W 123°04'0 0.0
2018-Jun-06 03:30N 49°12' W 123°04'  
Track history (hours):
 
Tides and Currents Weather Stations Pressure Air Temp Water Temp Dewpoint Dewpoint Depression Visibility Wind Speed Wind Dir Waves Ship Positions

Dd Catherwood

Last reported at 2018-Jun-16 03:16 UTC. Time now 2018-Jun-18 11:18 UTC.
Position N 49°12' W 123°04'.

Length 21 m; draft 3.5 m.

Type: Tow > 200 m length. MMSI: 316006155.

Date/timePositionNaut miles runAvg speedWind from/ knotsBaromVisibWave heightAir tempDewpointWater temp
2018-Jun-16 03:16N 49°12' W 123°04'0 0.0
2018-Jun-16 03:00N 49°12' W 123°04'0 0.0
2018-Jun-16 02:30N 49°12' W 123°04'0 0.0
2018-Jun-16 02:00N 49°12' W 123°04'1 1.5
2018-Jun-16 01:29N 49°12' W 123°05'4 8.0
2018-Jun-16 01:00N 49°13' W 123°11'5 9.3
2018-Jun-16 00:28N 49°16' W 123°17'4 7.9
2018-Jun-16 00:00N 49°17' W 123°23'31 8.7
2018-Jun-15 20:29N 49°33' W 124°03'5 9.2
2018-Jun-15 19:57N 49°36' W 124°09'6 9.5
2018-Jun-15 19:18N 49°40' W 124°16'4 9.5
2018-Jun-15 18:55N 49°42' W 124°20'4 9.4
2018-Jun-15 18:30N 49°44' W 124°25'5 9.2
2018-Jun-15 18:00N 49°47' W 124°31'5 9.1
2018-Jun-15 17:30N 49°51' W 124°33'1 1.1
2018-Jun-15 16:59N 49°52' W 124°33'0 0.0
2018-Jun-15 16:29N 49°52' W 124°33'0 0.0
2018-Jun-15 16:00N 49°52' W 124°33'0 0.0
2018-Jun-15 15:30N 49°52' W 124°33'0 0.0
2018-Jun-15 14:36N 49°52' W 124°33'0 0.0
2018-Jun-15 14:30N 49°52' W 124°33'0 0.0
2018-Jun-15 13:59N 49°52' W 124°33'0 0.0
2018-Jun-15 13:27N 49°52' W 124°33'0 0.0
2018-Jun-15 13:00N 49°52' W 124°33'1 2.0
2018-Jun-15 12:31N 49°51' W 124°33'3 6.7
2018-Jun-15 12:00N 49°48' W 124°32'4 8.7
2018-Jun-15 11:30N 49°45' W 124°26'4 8.8
2018-Jun-15 11:00N 49°43' W 124°20'5 8.7
2018-Jun-15 10:28N 49°40' W 124°15'4 8.7
2018-Jun-15 09:59N 49°37' W 124°10'5 9.1
2018-Jun-15 09:27N 49°34' W 124°05'32 8.5
2018-Jun-15 05:44N 49°17' W 123°23'2 7.8
2018-Jun-15 05:30N 49°17' W 123°21'3 6.8
2018-Jun-15 04:59N 49°15' W 123°16'3 7.1
2018-Jun-15 04:30N 49°13' W 123°12'3 6.6
2018-Jun-15 04:00N 49°12' W 123°07'2 3.9
2018-Jun-15 03:30N 49°12' W 123°04'0 0.1
2018-Jun-15 03:00N 49°12' W 123°04'0 0.0
2018-Jun-15 02:30N 49°12' W 123°04'0 0.0
2018-Jun-15 02:00N 49°12' W 123°04'0 0.0
2018-Jun-15 01:30N 49°12' W 123°04'0 0.0
2018-Jun-15 01:00N 49°12' W 123°04'0 0.0
2018-Jun-15 00:30N 49°12' W 123°04'0 0.0
2018-Jun-15 00:00N 49°12' W 123°04'0 0.0
2018-Jun-14 23:29N 49°12' W 123°04'0 0.0
2018-Jun-14 23:00N 49°12' W 123°04'0 0.0
2018-Jun-14 22:30N 49°12' W 123°04'0 0.0
2018-Jun-14 22:00N 49°12' W 123°04'0 0.0
2018-Jun-14 21:30N 49°12' W 123°04'0 0.0
2018-Jun-14 21:00N 49°12' W 123°04'0 0.0
2018-Jun-14 20:30N 49°12' W 123°04'0 0.0
2018-Jun-14 20:00N 49°12' W 123°04'0 0.0
2018-Jun-14 19:30N 49°12' W 123°04'0 0.0
2018-Jun-14 19:00N 49°12' W 123°04'0 0.0
2018-Jun-14 18:30N 49°12' W 123°04'0 0.0
2018-Jun-14 18:00N 49°12' W 123°04'0 0.1
2018-Jun-14 17:30N 49°12' W 123°04'2 3.7
2018-Jun-14 17:00N 49°12' W 123°07'2 4.5
2018-Jun-14 16:30N 49°13' W 123°10'2 4.9
2018-Jun-14 15:59N 49°14' W 123°13'3 4.8
2018-Jun-14 15:26N 49°15' W 123°16'3 6.8
2018-Jun-14 14:59N 49°17' W 123°21'8 7.5
2018-Jun-14 13:54N 49°24' W 123°25'4 8.8
2018-Jun-14 13:30N 49°27' W 123°28'3 0.8
2018-Jun-14 09:29N 49°30' W 123°30'1 0.6
2018-Jun-14 08:27N 49°30' W 123°29'4 7.6
2018-Jun-14 07:59N 49°26' W 123°28'4 7.7
2018-Jun-14 07:26N 49°22' W 123°26'4 7.1
2018-Jun-14 06:56N 49°19' W 123°24'4 8.9
2018-Jun-14 06:30N 49°18' W 123°18'5 8.4
2018-Jun-14 05:57N 49°14' W 123°14'4 8.3
2018-Jun-14 05:30N 49°12' W 123°09'3 7.0
2018-Jun-14 05:00N 49°12' W 123°04'0 0.2
2018-Jun-14 04:30N 49°12' W 123°04'0 0.4
2018-Jun-14 04:00N 49°12' W 123°04'0 0.4
2018-Jun-14 03:29N 49°12' W 123°04'3 5.2
2018-Jun-14 02:59N 49°12' W 123°08'3 7.1
2018-Jun-14 02:30N 49°13' W 123°12'4 7.6
2018-Jun-14 02:00N 49°16' W 123°17'3 6.8
2018-Jun-14 01:30N 49°16' W 123°22'31 8.5
2018-Jun-13 21:51N 49°33' W 124°02'3 8.3
2018-Jun-13 21:30N 49°35' W 124°06'4 8.4
2018-Jun-13 21:00N 49°38' W 124°11'4 8.3
2018-Jun-13 20:29N 49°40' W 124°15'4 8.6
2018-Jun-13 19:59N 49°43' W 124°21'4 8.8
2018-Jun-13 19:30N 49°45' W 124°26'4 8.4
2018-Jun-13 19:00N 49°48' W 124°32'4 8.4
2018-Jun-13 18:29N 49°52' W 124°34'0 0.9
2018-Jun-13 18:00N 49°52' W 124°33'0 0.1
2018-Jun-13 17:22N 49°52' W 124°33'0 0.0
2018-Jun-13 16:51N 49°52' W 124°33'0 0.0
2018-Jun-13 16:30N 49°52' W 124°33'0 0.0
2018-Jun-13 16:00N 49°52' W 124°33'0 0.0
2018-Jun-13 15:30N 49°52' W 124°33'0 0.0
2018-Jun-13 15:01N 49°52' W 124°33'0 0.0
2018-Jun-13 14:30N 49°52' W 124°33'0 0.0
2018-Jun-13 13:59N 49°52' W 124°33'1 1.2
2018-Jun-13 13:30N 49°52' W 124°33'3 5.1
2018-Jun-13 13:00N 49°49' W 124°33'4 8.8
2018-Jun-13 12:30N 49°46' W 124°28'4 8.9
2018-Jun-13 12:00N 49°44' W 124°22'5 9.2
2018-Jun-13 11:30N 49°41' W 124°16'5 9.5
2018-Jun-13 11:00N 49°38' W 124°10'6 9.1
2018-Jun-13 10:22N 49°34' W 124°04'30 8.8
2018-Jun-13 06:56N 49°17' W 123°24'4 9.3
2018-Jun-13 06:30N 49°16' W 123°19'4 8.0
2018-Jun-13 06:00N 49°14' W 123°14'4 8.1
2018-Jun-13 05:30N 49°12' W 123°08'3 5.3
2018-Jun-13 05:00N 49°12' W 123°04'0 0.2
2018-Jun-13 04:30N 49°12' W 123°04'0 0.0
2018-Jun-13 03:59N 49°12' W 123°04'0 0.0
2018-Jun-13 03:30N 49°12' W 123°04'0 0.0
2018-Jun-13 03:00N 49°12' W 123°04'0 0.0
2018-Jun-13 02:29N 49°12' W 123°04'0 0.0
2018-Jun-13 02:00N 49°12' W 123°04'0 0.0
2018-Jun-13 01:29N 49°12' W 123°04'0 0.0
2018-Jun-13 01:00N 49°12' W 123°04'0 0.0
2018-Jun-13 00:30N 49°12' W 123°04'0 0.0
2018-Jun-12 23:58N 49°12' W 123°04'0 0.0
2018-Jun-12 23:30N 49°12' W 123°04'0 0.0
2018-Jun-12 23:00N 49°12' W 123°04'0 0.0
2018-Jun-12 22:30N 49°12' W 123°04'0 0.0
2018-Jun-12 22:00N 49°12' W 123°04'0 0.0
2018-Jun-12 21:30N 49°12' W 123°04'0 0.0
2018-Jun-12 21:00N 49°12' W 123°04'0 0.0
2018-Jun-12 20:28N 49°12' W 123°04'0 0.0
2018-Jun-12 20:00N 49°12' W 123°04'0 0.0
2018-Jun-12 19:29N 49°12' W 123°04'0 0.0
2018-Jun-12 19:00N 49°12' W 123°04'0 0.0
2018-Jun-12 18:30N 49°12' W 123°04'0 0.0
2018-Jun-12 17:59N 49°12' W 123°04'0 0.0
2018-Jun-12 17:30N 49°12' W 123°04'0 0.0
2018-Jun-12 17:00N 49°12' W 123°04'0 0.0
2018-Jun-12 16:28N 49°12' W 123°04'0 0.0
2018-Jun-12 15:59N 49°12' W 123°04'0 0.0
2018-Jun-12 15:30N 49°12' W 123°04'0 0.0
2018-Jun-12 15:00N 49°12' W 123°04'0 0.0
2018-Jun-12 14:30N 49°12' W 123°04'0 0.0
2018-Jun-12 14:00N 49°12' W 123°04'0 0.0
2018-Jun-12 13:28N 49°12' W 123°04'0 0.0
2018-Jun-12 13:00N 49°12' W 123°04'0 0.0
2018-Jun-12 12:30N 49°12' W 123°04'0 0.0
2018-Jun-12 12:00N 49°12' W 123°04'0 0.0
2018-Jun-12 11:29N 49°12' W 123°04'0 0.0
2018-Jun-12 11:00N 49°12' W 123°04'0 0.0
2018-Jun-12 10:30N 49°12' W 123°04'0 0.0
2018-Jun-12 10:00N 49°12' W 123°04'0 0.0
2018-Jun-12 09:30N 49°12' W 123°04'0 0.0
2018-Jun-12 09:00N 49°12' W 123°04'0 0.0
2018-Jun-12 08:29N 49°12' W 123°04'0 0.0
2018-Jun-12 08:00N 49°12' W 123°04'0 0.0
2018-Jun-12 07:30N 49°12' W 123°04'0 0.0
2018-Jun-12 06:53N 49°12' W 123°04'0 0.0
2018-Jun-12 06:28N 49°12' W 123°04'0 0.0
2018-Jun-12 05:58N 49°12' W 123°04'0 0.0
2018-Jun-12 05:28N 49°12' W 123°04'0 0.0
2018-Jun-12 05:00N 49°12' W 123°04'0 0.0
2018-Jun-12 04:30N 49°12' W 123°04'0 0.0
2018-Jun-12 04:00N 49°12' W 123°04'0 0.0
2018-Jun-12 03:30N 49°12' W 123°04'0 0.0
2018-Jun-12 02:47N 49°12' W 123°04'0 0.0
2018-Jun-12 02:28N 49°12' W 123°04'0 0.0
2018-Jun-12 01:57N 49°12' W 123°04'0 0.0
2018-Jun-12 01:30N 49°12' W 123°04'0 0.0
2018-Jun-12 01:00N 49°12' W 123°04'0 0.0
2018-Jun-12 00:30N 49°12' W 123°04'0 0.0
2018-Jun-11 23:58N 49°12' W 123°04'0 0.0
2018-Jun-11 23:30N 49°12' W 123°04'0 0.0
2018-Jun-11 23:00N 49°12' W 123°04'0 0.0
2018-Jun-11 22:25N 49°12' W 123°04'0 0.0
2018-Jun-11 21:58N 49°12' W 123°04'0 0.0
2018-Jun-11 21:27N 49°12' W 123°04'0 0.0
2018-Jun-11 20:57N 49°12' W 123°04'0 0.0
2018-Jun-11 20:29N 49°12' W 123°04'0 0.0
2018-Jun-11 20:00N 49°12' W 123°04'0 0.0
2018-Jun-11 19:27N 49°12' W 123°04'0 0.0
2018-Jun-11 18:58N 49°12' W 123°04'0 0.0
2018-Jun-11 18:30N 49°12' W 123°04'0 0.0
2018-Jun-11 18:00N 49°12' W 123°04'0 0.0
2018-Jun-11 17:28N 49°12' W 123°04'0 0.0
2018-Jun-11 16:59N 49°12' W 123°04'0 0.0
2018-Jun-11 16:30N 49°12' W 123°04'0 0.0
2018-Jun-11 16:00N 49°12' W 123°04'0 0.0
2018-Jun-11 15:29N 49°12' W 123°04'0 0.0
2018-Jun-11 15:00N 49°12' W 123°04'0 0.0
2018-Jun-11 14:30N 49°12' W 123°04'0 0.0
2018-Jun-11 14:00N 49°12' W 123°04'0 0.0
2018-Jun-11 13:28N 49°12' W 123°04'0 0.0
2018-Jun-11 12:58N 49°12' W 123°04'0 0.0
2018-Jun-11 12:30N 49°12' W 123°04'0 0.0
2018-Jun-11 11:59N 49°12' W 123°04'0 0.0
2018-Jun-11 11:30N 49°12' W 123°04'0 0.0
2018-Jun-11 11:00N 49°12' W 123°04'0 0.0
2018-Jun-11 10:27N 49°12' W 123°04'0 0.0
2018-Jun-11 09:51N 49°12' W 123°04'0 0.0
2018-Jun-11 09:04N 49°12' W 123°04'0 0.0
2018-Jun-11 08:49N 49°12' W 123°04'0 0.0
2018-Jun-11 07:58N 49°12' W 123°04'0 0.0
2018-Jun-11 07:27N 49°12' W 123°04'0 0.0
2018-Jun-11 07:00N 49°12' W 123°04'0 0.0
2018-Jun-11 06:28N 49°12' W 123°04'0 0.0
2018-Jun-11 05:58N 49°12' W 123°04'0 0.0
2018-Jun-11 05:29N 49°12' W 123°04'0 0.0
2018-Jun-11 04:38N 49°12' W 123°04'0 0.0
2018-Jun-11 04:30N 49°12' W 123°04'0 0.0
2018-Jun-11 03:58N 49°12' W 123°04'0 0.0
2018-Jun-11 03:20N 49°12' W 123°04'0 0.0
2018-Jun-11 02:48N 49°12' W 123°04'0 0.0
2018-Jun-11 02:29N 49°12' W 123°04'0 0.0
2018-Jun-11 02:00N 49°12' W 123°04'0 0.0
2018-Jun-11 01:26N 49°12' W 123°04'0 0.0
2018-Jun-11 00:56N 49°12' W 123°04'0 0.0
2018-Jun-11 00:15N 49°12' W 123°04'0 0.0
2018-Jun-10 23:54N 49°12' W 123°04'0 0.0
2018-Jun-10 23:25N 49°12' W 123°04'0 0.0
2018-Jun-10 22:58N 49°12' W 123°04'0 0.0
2018-Jun-10 22:27N 49°12' W 123°04'0 0.0
2018-Jun-10 21:58N 49°12' W 123°04'0 0.0
2018-Jun-10 21:30N 49°12' W 123°04'0 0.0
2018-Jun-10 21:00N 49°12' W 123°04'0 0.0
2018-Jun-10 20:30N 49°12' W 123°04'0 0.0
2018-Jun-10 19:59N 49°12' W 123°04'0 0.0
2018-Jun-10 19:30N 49°12' W 123°04'0 0.0
2018-Jun-10 18:38N 49°12' W 123°04'0 0.0
2018-Jun-10 18:30N 49°12' W 123°04'0 0.0
2018-Jun-10 18:00N 49°12' W 123°04'0 0.0
2018-Jun-10 17:28N 49°12' W 123°04'0 0.0
2018-Jun-10 17:00N 49°12' W 123°04'0 0.0
2018-Jun-10 16:30N 49°12' W 123°04'0 0.0
2018-Jun-10 16:00N 49°12' W 123°04'0 0.0
2018-Jun-10 15:30N 49°12' W 123°04'0 0.0
2018-Jun-10 15:00N 49°12' W 123°04'0 0.0
2018-Jun-10 14:00N 49°12' W 123°04'0 0.0
2018-Jun-10 13:30N 49°12' W 123°04'0 0.0
2018-Jun-10 13:00N 49°12' W 123°04'0 0.0
2018-Jun-10 12:30N 49°12' W 123°04'0 0.0
2018-Jun-10 11:58N 49°12' W 123°04'0 0.0
2018-Jun-10 11:25N 49°12' W 123°04'0 0.0
2018-Jun-10 10:58N 49°12' W 123°04'0 0.0
2018-Jun-10 10:29N 49°12' W 123°04'0 0.0
2018-Jun-10 09:22N 49°12' W 123°04'0 0.0
2018-Jun-10 08:57N 49°12' W 123°04'0 0.0
2018-Jun-10 08:30N 49°12' W 123°04'0 0.0
2018-Jun-10 07:59N 49°12' W 123°04'0 0.0
2018-Jun-10 07:30N 49°12' W 123°04'0 0.0
2018-Jun-10 06:59N 49°12' W 123°04'0 0.0
2018-Jun-10 06:30N 49°12' W 123°04'0 0.0
2018-Jun-10 05:55N 49°12' W 123°04'0 0.0
2018-Jun-10 05:30N 49°12' W 123°04'0 0.0
2018-Jun-10 04:15N 49°12' W 123°04'0 0.0
2018-Jun-10 04:00N 49°12' W 123°04'0 0.0
2018-Jun-10 03:30N 49°12' W 123°04'0 0.0
2018-Jun-10 03:00N 49°12' W 123°04'0 0.0
2018-Jun-10 02:30N 49°12' W 123°04'0 0.0
2018-Jun-10 02:00N 49°12' W 123°04'0 0.0
2018-Jun-10 01:30N 49°12' W 123°04'0 0.0
2018-Jun-10 00:59N 49°12' W 123°04'0 0.0
2018-Jun-10 00:30N 49°12' W 123°04'0 0.0
2018-Jun-10 00:00N 49°12' W 123°04'0 0.0
2018-Jun-09 23:30N 49°12' W 123°04'0 0.0
2018-Jun-09 23:00N 49°12' W 123°04'0 0.0
2018-Jun-09 22:29N 49°12' W 123°04'0 0.0
2018-Jun-09 22:00N 49°12' W 123°04'0 0.0
2018-Jun-09 21:30N 49°12' W 123°04'0 0.0
2018-Jun-09 20:55N 49°12' W 123°04'0 0.0
2018-Jun-09 20:30N 49°12' W 123°04'0 0.0
2018-Jun-09 20:00N 49°12' W 123°04'0 0.0
2018-Jun-09 19:30N 49°12' W 123°04'0 0.0
2018-Jun-09 19:00N 49°12' W 123°04'0 0.0
2018-Jun-09 18:30N 49°12' W 123°04'0 0.0
2018-Jun-09 18:00N 49°12' W 123°04'0 0.0
2018-Jun-09 17:28N 49°12' W 123°04'0 0.0
2018-Jun-09 17:00N 49°12' W 123°04'0 0.0
2018-Jun-09 16:30N 49°12' W 123°04'0 0.0
2018-Jun-09 16:00N 49°12' W 123°04'0 0.0
2018-Jun-09 15:00N 49°12' W 123°04'0 0.0
2018-Jun-09 14:30N 49°12' W 123°04'0 0.0
2018-Jun-09 13:59N 49°12' W 123°04'0 0.0
2018-Jun-09 13:30N 49°12' W 123°04'0 0.0
2018-Jun-09 12:58N 49°12' W 123°04'0 0.0
2018-Jun-09 12:30N 49°12' W 123°04'0 0.0
2018-Jun-09 12:00N 49°12' W 123°04'0 0.0
2018-Jun-09 11:30N 49°12' W 123°04'0 0.0
2018-Jun-09 10:55N 49°12' W 123°04'0 0.0
2018-Jun-09 10:19N 49°12' W 123°04'0 0.0
2018-Jun-09 09:57N 49°12' W 123°04'0 0.0
2018-Jun-09 09:30N 49°12' W 123°04'0 0.0
2018-Jun-09 08:59N 49°12' W 123°04'0 0.0
2018-Jun-09 08:08N 49°12' W 123°04'0 0.0
2018-Jun-09 07:59N 49°12' W 123°04'0 0.0
2018-Jun-09 06:27N 49°12' W 123°04'0 0.0
2018-Jun-09 06:00N 49°12' W 123°04'0 0.0
2018-Jun-09 05:26N 49°12' W 123°04'0 0.0
2018-Jun-09 04:59N 49°12' W 123°04'0 0.0
2018-Jun-09 04:30N 49°12' W 123°04'0 0.0
2018-Jun-09 03:56N 49°12' W 123°04'0 0.0
2018-Jun-09 03:30N 49°12' W 123°04'0 0.0
2018-Jun-09 03:00N 49°12' W 123°04'0 0.0
2018-Jun-09 02:29N 49°12' W 123°04'0 0.0
2018-Jun-09 01:56N 49°12' W 123°04'0 0.0
2018-Jun-09 01:30N 49°12' W 123°04'0 0.0
2018-Jun-09 00:58N 49°12' W 123°04'0 0.0
2018-Jun-09 00:30N 49°12' W 123°04'0 0.0
2018-Jun-08 23:59N 49°12' W 123°04'0 0.0
2018-Jun-08 23:24N 49°12' W 123°04'0 0.0
2018-Jun-08 23:00N 49°12' W 123°04'0 0.0
2018-Jun-08 22:30N 49°12' W 123°04'0 0.0
2018-Jun-08 21:59N 49°12' W 123°04'0 0.0
2018-Jun-08 21:30N 49°12' W 123°04'0 0.0
2018-Jun-08 20:59N 49°12' W 123°04'0 0.0
2018-Jun-08 20:30N 49°12' W 123°04'0 0.0
2018-Jun-08 20:00N 49°12' W 123°04'0 0.0
2018-Jun-08 19:30N 49°12' W 123°04'0 0.0
2018-Jun-08 18:59N 49°12' W 123°04'0 0.0
2018-Jun-08 18:28N 49°12' W 123°04'0 0.0
2018-Jun-08 18:00N 49°12' W 123°04'0 0.0
2018-Jun-08 17:30N 49°12' W 123°04'0 0.0
2018-Jun-08 17:00N 49°12' W 123°04'0 0.0
2018-Jun-08 16:30N 49°12' W 123°04'0 0.0
2018-Jun-08 16:00N 49°12' W 123°04'0 0.0
2018-Jun-08 15:30N 49°12' W 123°04'0 0.0
2018-Jun-08 15:00N 49°12' W 123°04'0 0.0
2018-Jun-08 14:30N 49°12' W 123°04'0 0.0
2018-Jun-08 13:59N 49°12' W 123°04'0 0.0
2018-Jun-08 13:29N 49°12' W 123°04'0 0.0
2018-Jun-08 13:00N 49°12' W 123°04'0 0.0
2018-Jun-08 12:29N 49°12' W 123°04'0 0.0
2018-Jun-08 12:00N 49°12' W 123°04'0 0.0
2018-Jun-08 11:30N 49°12' W 123°04'0 0.0
2018-Jun-08 11:00N 49°12' W 123°04'0 0.0
2018-Jun-08 10:28N 49°12' W 123°04'0 0.0
2018-Jun-08 10:00N 49°12' W 123°04'0 0.0
2018-Jun-08 09:28N 49°12' W 123°04'0 0.0
2018-Jun-08 09:00N 49°12' W 123°04'0 0.0
2018-Jun-08 08:30N 49°12' W 123°04'0 0.0
2018-Jun-08 08:00N 49°12' W 123°04'0 0.0
2018-Jun-08 07:30N 49°12' W 123°04'0 0.0
2018-Jun-08 07:00N 49°12' W 123°04'0 0.0
2018-Jun-08 06:30N 49°12' W 123°04'0 0.0
2018-Jun-08 06:00N 49°12' W 123°04'0 0.0
2018-Jun-08 05:29N 49°12' W 123°04'0 0.0
2018-Jun-08 04:59N 49°12' W 123°04'0 0.0
2018-Jun-08 04:26N 49°12' W 123°04'0 0.0
2018-Jun-08 04:00N 49°12' W 123°04'0 0.0
2018-Jun-08 03:30N 49°12' W 123°04'0 0.0
2018-Jun-08 03:00N 49°12' W 123°04'0 0.0
2018-Jun-08 02:30N 49°12' W 123°04'0 0.0
2018-Jun-08 01:58N 49°12' W 123°04'0 0.0
2018-Jun-08 01:30N 49°12' W 123°04'0 0.0
2018-Jun-08 01:00N 49°12' W 123°04'0 0.0
2018-Jun-08 00:30N 49°12' W 123°04'0 0.0
2018-Jun-08 00:00N 49°12' W 123°04'0 0.0
2018-Jun-07 23:29N 49°12' W 123°04'0 0.0
2018-Jun-07 23:00N 49°12' W 123°04'0 0.0
2018-Jun-07 22:30N 49°12' W 123°04'0 0.0
2018-Jun-07 22:00N 49°12' W 123°04'0 0.0
2018-Jun-07 21:30N 49°12' W 123°04'0 0.0
2018-Jun-07 21:00N 49°12' W 123°04'0 0.0
2018-Jun-07 20:30N 49°12' W 123°04'0 0.0
2018-Jun-07 20:00N 49°12' W 123°04'0 0.0
2018-Jun-07 19:30N 49°12' W 123°04'0 0.0
2018-Jun-07 19:00N 49°12' W 123°04'0 0.0
2018-Jun-07 18:30N 49°12' W 123°04'0 0.0
2018-Jun-07 18:00N 49°12' W 123°04'0 0.0
2018-Jun-07 17:29N 49°12' W 123°04'0 0.0
2018-Jun-07 17:00N 49°12' W 123°04'0 0.0
2018-Jun-07 16:30N 49°12' W 123°04'0 0.0
2018-Jun-07 16:00N 49°12' W 123°04'0 0.0
2018-Jun-07 15:30N 49°12' W 123°04'0 0.0
2018-Jun-07 15:00N 49°12' W 123°04'0 0.0
2018-Jun-07 14:29N 49°12' W 123°04'0 0.0
2018-Jun-07 14:00N 49°12' W 123°04'0 0.0
2018-Jun-07 13:30N 49°12' W 123°04'0 0.0
2018-Jun-07 13:00N 49°12' W 123°04'0 0.0
2018-Jun-07 12:30N 49°12' W 123°04'0 0.0
2018-Jun-07 11:59N 49°12' W 123°04'0 0.0
2018-Jun-07 11:30N 49°12' W 123°04'0 0.0
2018-Jun-07 11:00N 49°12' W 123°04'0 0.0
2018-Jun-07 10:30N 49°12' W 123°04'0 0.0
2018-Jun-07 10:00N 49°12' W 123°04'0 0.0
2018-Jun-07 09:30N 49°12' W 123°04'0 0.0
2018-Jun-07 09:00N 49°12' W 123°04'0 0.0
2018-Jun-07 08:30N 49°12' W 123°04'0 0.0
2018-Jun-07 08:00N 49°12' W 123°04'0 0.0
2018-Jun-07 07:30N 49°12' W 123°04'0 0.0
2018-Jun-07 07:00N 49°12' W 123°04'0 0.0
2018-Jun-07 06:30N 49°12' W 123°04'0 0.0
2018-Jun-07 06:00N 49°12' W 123°04'0 0.0
2018-Jun-07 05:30N 49°12' W 123°04'0 0.0
2018-Jun-07 05:00N 49°12' W 123°04'0 0.0
2018-Jun-07 04:30N 49°12' W 123°04'0 0.0
2018-Jun-07 03:59N 49°12' W 123°04'0 0.0
2018-Jun-07 03:30N 49°12' W 123°04'0 0.0
2018-Jun-07 03:00N 49°12' W 123°04'0 0.0
2018-Jun-07 02:30N 49°12' W 123°04'0 0.0
2018-Jun-07 02:00N 49°12' W 123°04'0 0.0
2018-Jun-07 01:30N 49°12' W 123°04'0 0.0
2018-Jun-07 00:59N 49°12' W 123°04'0 0.0
2018-Jun-07 00:30N 49°12' W 123°04'0 0.0
2018-Jun-07 00:00N 49°12' W 123°04'0 0.0
2018-Jun-06 23:29N 49°12' W 123°04'0 0.0
2018-Jun-06 23:00N 49°12' W 123°04'0 0.0
2018-Jun-06 22:30N 49°12' W 123°04'0 0.0
2018-Jun-06 22:00N 49°12' W 123°04'0 0.0
2018-Jun-06 21:30N 49°12' W 123°04'0 0.0
2018-Jun-06 21:00N 49°12' W 123°04'0 0.0
2018-Jun-06 20:30N 49°12' W 123°04'0 0.0
2018-Jun-06 20:00N 49°12' W 123°04'0 0.0
2018-Jun-06 19:30N 49°12' W 123°04'0 0.0
2018-Jun-06 19:00N 49°12' W 123°04'0 0.0
2018-Jun-06 18:30N 49°12' W 123°04'0 0.0
2018-Jun-06 18:00N 49°12' W 123°04'0 0.0
2018-Jun-06 17:30N 49°12' W 123°04'0 0.0
2018-Jun-06 17:00N 49°12' W 123°04'0 0.0
2018-Jun-06 16:30N 49°12' W 123°04'0 0.0
2018-Jun-06 15:59N 49°12' W 123°04'0 0.0
2018-Jun-06 15:30N 49°12' W 123°04'0 0.0
2018-Jun-06 15:00N 49°12' W 123°04'0 0.0
2018-Jun-06 14:29N 49°12' W 123°04'0 0.0
2018-Jun-06 14:00N 49°12' W 123°04'0 0.0
2018-Jun-06 13:30N 49°12' W 123°04'0 0.0
2018-Jun-06 13:00N 49°12' W 123°04'0 0.0
2018-Jun-06 12:30N 49°12' W 123°04'0 0.0
2018-Jun-06 12:00N 49°12' W 123°04'0 0.0
2018-Jun-06 11:30N 49°12' W 123°04'0 0.0
2018-Jun-06 11:00N 49°12' W 123°04'0 0.0
2018-Jun-06 10:30N 49°12' W 123°04'0 0.0
2018-Jun-06 09:59N 49°12' W 123°04'0 0.0
2018-Jun-06 09:30N 49°12' W 123°04'0 0.0
2018-Jun-06 09:00N 49°12' W 123°04'0 0.0
2018-Jun-06 08:30N 49°12' W 123°04'0 0.0
2018-Jun-06 08:00N 49°12' W 123°04'0 0.0
2018-Jun-06 07:30N 49°12' W 123°04'0 0.0
2018-Jun-06 07:00N 49°12' W 123°04'0 0.0
2018-Jun-06 06:30N 49°12' W 123°04'0 0.0
2018-Jun-06 06:00N 49°12' W 123°04'0 0.0
2018-Jun-06 05:30N 49°12' W 123°04'0 0.0
2018-Jun-06 05:00N 49°12' W 123°04'0 0.0
2018-Jun-06 04:30N 49°12' W 123°04'0 0.0
2018-Jun-06 04:00N 49°12' W 123°04'0 0.0
2018-Jun-06 03:30N 49°12' W 123°04'  

Dump ship's entire track history